createdAt,value
2019-04-07T00:02:09.756Z,58.37
2019-04-07T00:04:39.875Z,58.54
2019-04-07T00:07:10.308Z,58.65
2019-04-07T00:09:40.337Z,58.73
2019-04-07T00:12:10.420Z,59.39
2019-04-07T00:14:42.489Z,60.41
2019-04-07T00:17:12.488Z,60.53
2019-04-07T00:19:42.323Z,60.35
2019-04-07T00:22:12.736Z,60.30
2019-04-07T00:24:43.183Z,60.43
2019-04-07T00:27:13.165Z,60.24
2019-04-07T00:29:43.085Z,60.06
2019-04-07T00:32:12.997Z,60.03
2019-04-07T00:34:42.987Z,60.15
2019-04-07T00:37:13.031Z,60.15
2019-04-07T00:39:43.456Z,60.37
2019-04-07T00:42:13.567Z,60.90
2019-04-07T00:44:43.475Z,61.55
2019-04-07T00:47:14.428Z,62.07
2019-04-07T00:49:44.392Z,62.67
2019-04-07T00:52:16.253Z,62.36
2019-04-07T00:54:46.141Z,62.05
2019-04-07T00:57:16.401Z,62.15
2019-04-07T00:59:46.314Z,62.18
2019-04-07T01:02:16.930Z,61.99
2019-04-07T01:04:47.269Z,62.31
2019-04-07T01:07:17.250Z,62.37
2019-04-07T01:09:47.316Z,61.83
2019-04-07T01:12:18.254Z,61.65
2019-04-07T01:14:48.971Z,62.19
2019-04-07T01:17:19.133Z,62.53
2019-04-07T01:19:49.680Z,62.51
2019-04-07T01:22:19.636Z,62.27
2019-04-07T01:24:49.597Z,61.70
2019-04-07T01:27:19.574Z,61.83
2019-04-07T01:29:49.466Z,61.88
2019-04-07T01:32:19.294Z,62.53
2019-04-07T01:34:49.406Z,61.27
2019-04-07T01:37:19.745Z,60.63
2019-04-07T01:39:50.098Z,60.93
2019-04-07T01:42:26.155Z,61.97
2019-04-07T01:45:31.139Z,62.32
2019-04-07T01:48:08.806Z,62.37
2019-04-07T01:50:46.985Z,62.33
2019-04-07T01:53:35.805Z,63.06
2019-04-07T01:56:23.441Z,63.84
2019-04-07T01:59:07.618Z,63.57
2019-04-07T02:01:55.753Z,63.05
2019-04-07T02:04:40.852Z,62.39
2019-04-07T02:07:27.207Z,62.84
2019-04-07T02:10:30.672Z,62.83
2019-04-07T02:13:39.334Z,62.93
2019-04-07T02:16:18.242Z,61.80
2019-04-07T02:19:00.984Z,61.44
2019-04-07T02:21:46.550Z,60.74
2019-04-07T02:24:20.988Z,61.28
2019-04-07T02:27:28.414Z,62.57
2019-04-07T02:30:21.860Z,62.41
2019-04-07T02:33:02.156Z,62.47
2019-04-07T02:36:20.725Z,63.15
2019-04-07T02:38:56.909Z,62.98
2019-04-07T02:41:36.451Z,63.18
2019-04-07T02:44:25.213Z,63.42
2019-04-07T02:47:16.012Z,63.21
2019-04-07T02:50:10.749Z,63.00
2019-04-07T02:53:05.791Z,62.75
2019-04-07T02:55:42.420Z,63.29
2019-04-07T02:58:50.089Z,63.67
2019-04-07T03:01:37.518Z,63.13
2019-04-07T03:04:17.867Z,63.64
2019-04-07T03:06:56.824Z,64.31
2019-04-07T03:09:44.759Z,62.81
2019-04-07T03:12:30.700Z,62.64
2019-04-07T03:15:16.083Z,62.66
2019-04-07T03:18:12.593Z,62.67
2019-04-07T03:21:02.415Z,62.85
2019-04-07T03:23:49.698Z,63.41
2019-04-07T03:26:37.756Z,63.55
2019-04-07T03:29:18.204Z,63.06
2019-04-07T03:32:10.264Z,63.21
2019-04-07T03:34:46.807Z,62.79
2019-04-07T03:37:39.774Z,61.63
2019-04-07T03:40:20.908Z,61.58
2019-04-07T03:43:13.439Z,61.73
2019-04-07T03:45:50.015Z,62.14
2019-04-07T03:48:28.367Z,62.09
2019-04-07T03:51:04.909Z,62.51
2019-04-07T03:53:42.794Z,62.17
2019-04-07T03:56:20.259Z,62.54
2019-04-07T03:58:58.004Z,62.73
2019-04-07T04:01:45.951Z,62.31
2019-04-07T04:04:32.502Z,61.48
2019-04-07T04:07:20.135Z,60.36
2019-04-07T04:10:03.226Z,60.85
2019-04-07T04:12:39.832Z,61.12
2019-04-07T04:15:18.261Z,60.77
2019-04-07T04:17:48.312Z,61.47
2019-04-07T04:20:18.340Z,62.40
2019-04-07T04:22:48.557Z,62.92
2019-04-07T04:25:21.434Z,63.21
2019-04-07T04:27:51.465Z,63.34
2019-04-07T04:30:21.449Z,63.61
2019-04-07T04:32:52.146Z,64.61
2019-04-07T04:35:22.443Z,64.32
2019-04-07T04:37:53.969Z,64.32
2019-04-07T04:40:24.277Z,64.39
2019-04-07T04:42:55.045Z,63.96
2019-04-07T04:45:25.073Z,64.33
2019-04-07T04:47:56.082Z,64.22
2019-04-07T04:50:26.163Z,64.39
2019-04-07T04:52:56.429Z,63.67
2019-04-07T04:55:26.374Z,63.55
2019-04-07T04:57:56.612Z,64.12
2019-04-07T05:00:28.492Z,63.93
2019-04-07T05:02:59.327Z,63.85
2019-04-07T05:05:29.265Z,63.47
2019-04-07T05:08:03.637Z,63.20
2019-04-07T05:10:31.027Z,63.48
2019-04-07T05:13:01.583Z,63.28
2019-04-07T05:15:32.546Z,63.13
2019-04-07T05:18:02.697Z,62.84
2019-04-07T05:20:33.161Z,63.27
2019-04-07T05:23:03.080Z,63.80
2019-04-07T05:25:33.665Z,63.16
2019-04-07T05:28:03.815Z,62.64
2019-04-07T05:30:33.726Z,61.89
2019-04-07T05:33:04.559Z,62.39
2019-04-07T05:35:35.084Z,62.77
2019-04-07T05:38:06.742Z,62.93
2019-04-07T05:40:36.753Z,63.39
2019-04-07T05:43:07.166Z,63.91
2019-04-07T05:45:37.679Z,63.58
2019-04-07T05:48:08.267Z,62.49
2019-04-07T05:50:38.631Z,63.22
2019-04-07T05:53:12.635Z,64.86
2019-04-07T05:55:40.271Z,64.70
2019-04-07T05:58:10.605Z,64.98
2019-04-07T06:00:41.591Z,66.70
2019-04-07T06:03:12.170Z,67.49
2019-04-07T06:05:41.994Z,69.01
2019-04-07T06:08:22.607Z,69.01
2019-04-07T06:10:43.707Z,68.20
2019-04-07T06:13:14.721Z,64.92
2019-04-07T06:15:45.759Z,64.60
2019-04-07T06:18:15.791Z,65.77
2019-04-07T06:20:46.655Z,63.64
2019-04-07T06:23:17.008Z,62.81
2019-04-07T06:25:47.591Z,62.25
2019-04-07T06:28:19.108Z,62.51
2019-04-07T06:30:49.524Z,63.08
2019-04-07T06:33:19.945Z,61.49
2019-04-07T06:35:53.919Z,63.03
2019-04-07T06:38:31.110Z,61.22
2019-04-07T06:40:57.119Z,60.44
2019-04-07T06:43:25.851Z,60.43
2019-04-07T06:46:03.849Z,60.23
2019-04-07T06:48:38.019Z,60.20
2019-04-07T06:51:13.990Z,60.20
2019-04-07T06:53:55.712Z,61.54
2019-04-07T06:56:33.418Z,60.40
2019-04-07T06:59:27.317Z,60.21
2019-04-07T07:02:22.559Z,59.21
2019-04-07T07:05:06.840Z,59.35
2019-04-07T07:07:48.323Z,57.93
2019-04-07T07:10:37.013Z,57.93
2019-04-07T07:13:30.739Z,58.74
2019-04-07T07:16:15.737Z,58.69
2019-04-07T07:19:06.396Z,56.92
2019-04-07T07:21:54.048Z,56.88
2019-04-07T07:24:25.680Z,57.36
2019-04-07T07:26:57.693Z,58.83
2019-04-07T07:29:27.093Z,59.75
2019-04-07T07:32:01.913Z,58.93
2019-04-07T07:34:28.534Z,59.00
2019-04-07T07:36:58.983Z,59.04
2019-04-07T07:39:30.544Z,58.72
2019-04-07T07:42:00.565Z,58.58
2019-04-07T07:44:31.241Z,58.58
2019-04-07T07:47:02.665Z,58.58
2019-04-07T07:49:36.886Z,55.98
2019-04-07T07:52:06.046Z,55.95
2019-04-07T07:54:37.232Z,53.93
2019-04-07T07:57:07.980Z,52.50
2019-04-07T07:59:39.338Z,51.86
2019-04-07T08:02:09.830Z,54.35
2019-04-07T08:04:39.950Z,54.73
2019-04-07T08:07:13.452Z,54.73
2019-04-07T08:09:42.126Z,53.57
2019-04-07T08:12:12.694Z,55.47
2019-04-07T08:14:42.715Z,55.59
2019-04-07T08:17:12.531Z,55.00
2019-04-07T08:19:44.330Z,55.46
2019-04-07T08:22:25.325Z,57.35
2019-04-07T08:24:47.642Z,57.04
2019-04-07T08:27:17.148Z,57.34
2019-04-07T08:29:47.429Z,55.71
2019-04-07T08:32:17.645Z,56.83
2019-04-07T08:34:47.510Z,57.27
2019-04-07T08:37:17.937Z,57.22
2019-04-07T08:39:48.595Z,56.32
2019-04-07T08:42:19.721Z,55.12
2019-04-07T08:44:49.940Z,56.73
2019-04-07T08:47:22.299Z,56.76
2019-04-07T08:49:55.423Z,56.97
2019-04-07T08:52:23.469Z,55.80
2019-04-07T08:54:53.549Z,56.07
2019-04-07T08:57:27.249Z,55.93
2019-04-07T08:59:55.114Z,56.21
2019-04-07T09:02:26.870Z,56.66
2019-04-07T09:04:56.949Z,56.98
2019-04-07T09:07:27.646Z,57.39
2019-04-07T09:09:57.861Z,57.74
2019-04-07T09:12:30.921Z,57.38
2019-04-07T09:15:02.838Z,56.86
2019-04-07T09:17:50.344Z,56.43
2019-04-07T09:20:48.398Z,56.08
2019-04-07T09:23:26.357Z,54.30
2019-04-07T09:26:28.679Z,52.32
2019-04-07T09:29:08.375Z,51.93
2019-04-07T09:32:00.504Z,53.41
2019-04-07T09:34:52.259Z,56.12
2019-04-07T09:37:44.858Z,54.20
2019-04-07T09:40:21.473Z,55.49
2019-04-07T09:43:18.041Z,55.26
2019-04-07T09:46:03.557Z,54.19
2019-04-07T09:48:58.778Z,52.17
2019-04-07T09:51:41.526Z,51.66
2019-04-07T09:54:20.524Z,54.17
2019-04-07T09:57:19.121Z,54.53
2019-04-07T10:00:14.471Z,53.08
2019-04-07T10:03:12.959Z,53.10
2019-04-07T10:06:00.813Z,52.72
2019-04-07T10:08:39.311Z,52.49
2019-04-07T10:11:37.447Z,53.60
2019-04-07T10:14:18.571Z,53.66
2019-04-07T10:16:54.631Z,52.55
2019-04-07T10:19:58.834Z,53.27
2019-04-07T10:22:44.112Z,52.14
2019-04-07T10:25:36.596Z,52.68
2019-04-07T10:28:27.685Z,52.41
2019-04-07T10:31:23.553Z,52.32
2019-04-07T10:34:00.050Z,51.87
2019-04-07T10:36:42.324Z,54.13
2019-04-07T10:39:49.749Z,52.34
2019-04-07T10:42:38.825Z,49.89
2019-04-07T10:45:26.307Z,48.17
2019-04-07T10:48:15.452Z,47.56
2019-04-07T10:51:03.302Z,46.89
2019-04-07T10:53:48.286Z,48.78
2019-04-07T10:56:31.991Z,50.97
2019-04-07T10:59:19.961Z,50.81
2019-04-07T11:02:08.352Z,50.12
2019-04-07T11:04:56.398Z,49.01
2019-04-07T11:07:42.377Z,48.92
2019-04-07T11:10:34.616Z,48.42
2019-04-07T11:13:18.633Z,47.35
2019-04-07T11:16:06.594Z,50.78
2019-04-07T11:18:56.550Z,49.91
2019-04-07T11:21:45.478Z,48.41
2019-04-07T11:24:38.117Z,49.55
2019-04-07T11:27:15.045Z,49.13
2019-04-07T11:29:54.979Z,48.26
2019-04-07T11:32:32.781Z,46.84
2019-04-07T11:35:13.753Z,48.09
2019-04-07T11:37:49.617Z,47.13
2019-04-07T11:40:42.507Z,46.24
2019-04-07T11:43:28.049Z,49.82
2019-04-07T11:46:14.047Z,48.99
2019-04-07T11:49:02.783Z,49.24
2019-04-07T11:51:50.521Z,48.24
2019-04-07T11:54:42.656Z,49.61
2019-04-07T11:57:34.190Z,48.24
2019-04-07T12:00:33.414Z,48.77
2019-04-07T12:03:26.032Z,49.29
2019-04-07T12:06:14.346Z,48.18
2019-04-07T12:08:56.477Z,47.90
2019-04-07T12:11:48.397Z,47.10
2019-04-07T12:14:27.546Z,47.42
2019-04-07T12:17:15.365Z,49.63
2019-04-07T12:19:55.963Z,49.26
2019-04-07T12:22:41.720Z,46.75
2019-04-07T12:25:33.559Z,50.24
2019-04-07T12:28:28.892Z,49.70
2019-04-07T12:31:07.549Z,48.86
2019-04-07T12:33:46.398Z,49.54
2019-04-07T12:36:35.471Z,47.51
2019-04-07T12:39:34.148Z,49.41
2019-04-07T12:42:11.344Z,48.45
2019-04-07T12:44:52.851Z,47.72
2019-04-07T12:47:41.871Z,47.47
2019-04-07T12:50:35.641Z,47.37
2019-04-07T12:53:34.439Z,48.58
2019-04-07T12:56:13.477Z,49.27
2019-04-07T12:59:05.356Z,47.19
2019-04-07T13:01:48.468Z,48.79
2019-04-07T13:04:44.610Z,46.89
2019-04-07T13:07:32.575Z,46.74
2019-04-07T13:10:10.807Z,46.94
2019-04-07T13:13:07.991Z,45.08
2019-04-07T13:16:01.455Z,45.38
2019-04-07T13:18:50.016Z,45.16
2019-04-07T13:21:25.106Z,46.84
2019-04-07T13:24:07.043Z,46.32
2019-04-07T13:26:45.612Z,45.09
2019-04-07T13:29:34.526Z,45.83
2019-04-07T13:32:14.935Z,45.08
2019-04-07T13:34:56.325Z,44.91
2019-04-07T13:37:35.902Z,44.27
2019-04-07T13:40:24.201Z,43.41
2019-04-07T13:43:13.417Z,43.50
2019-04-07T13:46:17.087Z,41.88
2019-04-07T13:49:02.768Z,42.33
2019-04-07T13:51:44.819Z,43.44
2019-04-07T13:54:21.156Z,42.60
2019-04-07T13:57:07.322Z,43.23
2019-04-07T14:00:02.119Z,45.71
2019-04-07T14:02:55.999Z,45.53
2019-04-07T14:05:43.640Z,46.76
2019-04-07T14:08:31.010Z,46.59
2019-04-07T14:11:27.354Z,45.12
2019-04-07T14:14:16.772Z,45.58
2019-04-07T14:17:06.257Z,43.91
2019-04-07T14:20:01.358Z,43.17
2019-04-07T14:22:50.529Z,43.10
2019-04-07T14:25:41.904Z,41.31
2019-04-07T14:28:23.457Z,42.64
2019-04-07T14:31:11.650Z,44.10
2019-04-07T14:33:59.242Z,44.97
2019-04-07T14:36:55.201Z,45.09
2019-04-07T14:39:47.673Z,44.65
2019-04-07T14:42:39.608Z,45.21
2019-04-07T14:45:32.066Z,44.13
2019-04-07T14:48:14.713Z,42.11
2019-04-07T14:50:58.134Z,41.97
2019-04-07T14:53:40.850Z,40.83
2019-04-07T14:56:20.522Z,40.38
2019-04-07T14:59:15.359Z,40.61
2019-04-07T15:01:53.703Z,40.39
2019-04-07T15:04:29.127Z,41.01
2019-04-07T15:07:11.617Z,40.72
2019-04-07T15:09:49.059Z,41.15
2019-04-07T15:12:28.498Z,40.38
2019-04-07T15:14:58.943Z,40.21
2019-04-07T15:17:29.406Z,39.51
2019-04-07T15:19:59.389Z,40.13
2019-04-07T15:22:30.836Z,39.95
2019-04-07T15:25:01.448Z,40.93
2019-04-07T15:27:31.623Z,40.30
2019-04-07T15:30:02.367Z,39.30
2019-04-07T15:32:35.641Z,41.71
2019-04-07T15:35:06.282Z,42.78
2019-04-07T15:37:39.514Z,43.35
2019-04-07T15:40:09.036Z,43.20
2019-04-07T15:42:42.900Z,44.37
2019-04-07T15:45:12.254Z,43.07
2019-04-07T15:47:42.565Z,43.17
2019-04-07T15:50:12.636Z,43.23
2019-04-07T15:52:45.939Z,44.70
2019-04-07T15:55:14.764Z,45.53
2019-04-07T15:57:44.744Z,44.93
2019-04-07T16:00:16.429Z,44.86
2019-04-07T16:02:49.008Z,44.86
2019-04-07T16:05:18.220Z,44.08
2019-04-07T16:07:48.160Z,43.83
2019-04-07T16:10:21.292Z,44.83
2019-04-07T16:12:52.469Z,44.93
2019-04-07T16:15:23.097Z,45.47
2019-04-07T16:17:53.038Z,44.93
2019-04-07T16:20:26.266Z,44.57
2019-04-07T16:22:55.508Z,44.79
2019-04-07T16:25:27.869Z,44.30
2019-04-07T16:27:57.419Z,43.88
2019-04-07T16:30:27.343Z,43.85
2019-04-07T16:33:01.898Z,43.51
2019-04-07T16:35:29.839Z,43.40
2019-04-07T16:38:01.534Z,43.95
2019-04-07T16:40:31.769Z,43.81
2019-04-07T16:43:11.721Z,43.38
2019-04-07T16:45:33.937Z,43.53
2019-04-07T16:48:05.441Z,43.61
2019-04-07T16:50:35.417Z,43.65
2019-04-07T16:53:07.650Z,44.49
2019-04-07T16:55:40.392Z,45.06
2019-04-07T16:58:11.822Z,45.16
2019-04-07T17:00:41.942Z,45.41
2019-04-07T17:03:11.981Z,45.82
2019-04-07T17:05:42.957Z,46.31
2019-04-07T17:08:17.655Z,46.28
2019-04-07T17:10:45.408Z,46.65
2019-04-07T17:13:20.503Z,46.80
2019-04-07T17:15:50.779Z,46.95
2019-04-07T17:18:39.051Z,48.17
2019-04-07T17:21:14.018Z,48.34
2019-04-07T17:23:43.478Z,49.21
2019-04-07T17:26:13.826Z,49.55
2019-04-07T17:28:46.196Z,49.45
2019-04-07T17:31:15.917Z,49.91
2019-04-07T17:33:46.936Z,50.24
2019-04-07T17:36:20.130Z,50.50
2019-04-07T17:38:58.602Z,50.56
2019-04-07T17:41:29.085Z,50.71
2019-04-07T17:44:23.410Z,50.68
2019-04-07T17:47:18.639Z,50.71
2019-04-07T17:50:10.686Z,50.81
2019-04-07T17:53:14.932Z,50.92
2019-04-07T17:56:01.305Z,50.81
2019-04-07T17:58:59.847Z,50.58
2019-04-07T18:02:00.399Z,50.71
2019-04-07T18:04:53.809Z,51.02
2019-04-07T18:07:52.067Z,51.06
2019-04-07T18:10:39.693Z,51.67
2019-04-07T18:13:39.521Z,51.16
2019-04-07T18:16:12.241Z,51.50
2019-04-07T18:18:58.325Z,51.72
2019-04-07T18:21:48.731Z,51.78
2019-04-07T18:24:31.717Z,51.81
2019-04-07T18:27:23.940Z,52.18
2019-04-07T18:30:14.504Z,52.29
2019-04-07T18:32:58.630Z,52.49
2019-04-07T18:35:52.215Z,52.59
2019-04-07T18:38:53.658Z,52.60
2019-04-07T18:41:47.923Z,52.95
2019-04-07T18:44:25.396Z,52.83
2019-04-07T18:47:20.889Z,53.00
2019-04-07T18:50:07.643Z,53.14
2019-04-07T18:52:47.541Z,53.50
2019-04-07T18:55:45.103Z,53.60
2019-04-07T18:58:50.021Z,53.23
2019-04-07T19:01:52.458Z,52.73
2019-04-07T19:04:34.733Z,52.39
2019-04-07T19:07:27.186Z,52.55
2019-04-07T19:10:10.590Z,52.98
2019-04-07T19:12:43.787Z,53.45
2019-04-07T19:15:37.123Z,53.50
2019-04-07T19:18:14.341Z,53.43
2019-04-07T19:21:09.769Z,53.41
2019-04-07T19:24:10.732Z,53.19
2019-04-07T19:27:12.017Z,54.40
2019-04-07T19:29:43.138Z,54.23
2019-04-07T19:32:40.238Z,54.39
2019-04-07T19:35:23.890Z,54.33
2019-04-07T19:38:05.360Z,54.67
2019-04-07T19:41:00.209Z,55.39
2019-04-07T19:43:48.036Z,57.95
2019-04-07T19:46:46.105Z,59.76
2019-04-07T19:49:53.563Z,60.64
2019-04-07T19:52:45.278Z,62.68
2019-04-07T19:55:40.981Z,65.13
2019-04-07T19:58:37.252Z,64.89
2019-04-07T20:01:29.527Z,64.99
2019-04-07T20:04:12.948Z,64.48
2019-04-07T20:06:56.114Z,65.98
2019-04-07T20:09:45.844Z,68.18
2019-04-07T20:12:27.403Z,66.66
2019-04-07T20:15:17.920Z,67.87
2019-04-07T20:18:10.477Z,68.36
2019-04-07T20:20:46.629Z,68.57
2019-04-07T20:23:36.011Z,69.52
2019-04-07T20:26:24.142Z,69.07
2019-04-07T20:29:11.755Z,68.18
2019-04-07T20:31:53.475Z,68.10
2019-04-07T20:34:52.637Z,68.38
2019-04-07T20:37:41.165Z,68.91
2019-04-07T20:40:29.543Z,69.78
2019-04-07T20:43:28.450Z,68.57
2019-04-07T20:46:36.004Z,68.53
2019-04-07T20:49:34.296Z,68.04
2019-04-07T20:52:41.269Z,69.24
2019-04-07T20:55:30.952Z,69.06
2019-04-07T20:58:43.809Z,69.42
2019-04-07T21:01:25.532Z,69.78
2019-04-07T21:04:04.615Z,69.39
2019-04-07T21:06:53.972Z,68.15
2019-04-07T21:09:34.058Z,68.56
2019-04-07T21:12:33.973Z,67.76
2019-04-07T21:15:27.491Z,68.58
2019-04-07T21:18:12.677Z,70.31
2019-04-07T21:20:59.784Z,70.47
2019-04-07T21:23:41.785Z,69.60
2019-04-07T21:26:19.712Z,69.69
2019-04-07T21:29:10.987Z,71.22
2019-04-07T21:32:01.935Z,70.99
2019-04-07T21:34:49.361Z,71.22
2019-04-07T21:37:40.713Z,70.49
2019-04-07T21:40:37.889Z,69.69
2019-04-07T21:43:27.998Z,69.42
2019-04-07T21:46:22.264Z,68.16
2019-04-07T21:49:09.795Z,68.52
2019-04-07T21:51:48.585Z,68.93
2019-04-07T21:54:41.218Z,69.34
2019-04-07T21:57:36.407Z,69.08
2019-04-07T22:00:35.497Z,66.78
2019-04-07T22:03:36.184Z,66.94
2019-04-07T22:06:29.783Z,65.90
2019-04-07T22:09:09.885Z,64.48
2019-04-07T22:11:43.086Z,65.17
2019-04-07T22:14:12.420Z,64.17
2019-04-07T22:16:42.847Z,66.51
2019-04-07T22:19:15.087Z,67.21
2019-04-07T22:21:44.547Z,68.01
2019-04-07T22:24:15.171Z,68.86
2019-04-07T22:26:49.209Z,68.14
2019-04-07T22:29:16.990Z,68.55
2019-04-07T22:31:51.421Z,69.65
2019-04-07T22:34:21.583Z,72.32
2019-04-07T22:36:51.762Z,72.82
2019-04-07T22:39:22.620Z,73.34
2019-04-07T22:41:52.667Z,72.69
2019-04-07T22:44:23.263Z,72.37
2019-04-07T22:46:54.385Z,72.84
2019-04-07T22:49:28.557Z,74.86
2019-04-07T22:51:56.677Z,75.47
2019-04-07T22:54:30.800Z,75.97
2019-04-07T22:57:00.665Z,76.71
2019-04-07T22:59:30.651Z,77.20
2019-04-07T23:02:00.610Z,76.81
2019-04-07T23:04:30.757Z,76.39
2019-04-07T23:07:00.861Z,76.35
2019-04-07T23:09:31.426Z,76.45
2019-04-07T23:12:02.213Z,74.64
2019-04-07T23:14:33.805Z,74.21
2019-04-07T23:17:04.058Z,73.72
2019-04-07T23:19:34.427Z,73.84
2019-04-07T23:22:05.317Z,74.13
2019-04-07T23:24:35.311Z,73.56
2019-04-07T23:27:06.121Z,74.73
2019-04-07T23:29:36.645Z,74.08
2019-04-07T23:32:07.410Z,72.67
2019-04-07T23:34:37.498Z,73.93
2019-04-07T23:37:08.164Z,75.00
2019-04-07T23:39:38.149Z,75.25
2019-04-07T23:42:09.060Z,75.12
2019-04-07T23:44:39.422Z,75.36
2019-04-07T23:47:09.598Z,75.64
2019-04-07T23:49:40.493Z,75.11
2019-04-07T23:52:11.064Z,74.50
2019-04-07T23:54:41.868Z,73.74
2019-04-07T23:57:11.738Z,73.31
2019-04-07T23:59:42.172Z,71.98
